createdAt,value
2019-04-29T00:02:32.126Z,102870.53
2019-04-29T00:05:38.695Z,102869.17
2019-04-29T00:08:45.223Z,102865.00
2019-04-29T00:11:51.579Z,102861.39
2019-04-29T00:15:08.048Z,102863.84
2019-04-29T00:18:22.353Z,102869.55
2019-04-29T00:21:28.810Z,102866.55
2019-04-29T00:24:35.221Z,102861.13
2019-04-29T00:27:41.638Z,102864.52
2019-04-29T00:30:48.156Z,102863.91
2019-04-29T00:33:54.545Z,102869.23
2019-04-29T00:37:10.579Z,102861.17
2019-04-29T00:40:39.157Z,102872.92
2019-04-29T00:43:50.446Z,102874.16
2019-04-29T00:46:56.723Z,102865.03
2019-04-29T00:50:03.091Z,102875.11
2019-04-29T00:53:09.435Z,102875.86
2019-04-29T00:56:16.781Z,102865.41
2019-04-29T00:59:23.479Z,102870.19
2019-04-29T01:02:29.843Z,102866.84
2019-04-29T01:05:37.057Z,102862.07
2019-04-29T01:08:43.527Z,102870.44
2019-04-29T01:11:50.083Z,102861.69
2019-04-29T01:14:56.843Z,102865.69
2019-04-29T01:18:03.254Z,102865.92
2019-04-29T01:21:09.633Z,102874.47
2019-04-29T01:24:17.227Z,102869.48
2019-04-29T01:27:31.438Z,102870.16
2019-04-29T01:31:00.342Z,102878.85
2019-04-29T01:34:16.275Z,102868.92
2019-04-29T01:37:35.263Z,102868.92
2019-04-29T01:40:48.812Z,102878.63
2019-04-29T01:44:02.891Z,102875.84
2019-04-29T01:47:10.329Z,102877.91
2019-04-29T01:50:16.704Z,102872.05
2019-04-29T01:53:23.174Z,102880.80
2019-04-29T01:56:30.135Z,102881.40
2019-04-29T01:59:36.625Z,102878.98
2019-04-29T02:02:42.951Z,102879.06
2019-04-29T02:05:49.345Z,102887.55
2019-04-29T02:08:57.302Z,102887.91
2019-04-29T02:12:04.176Z,102891.22
2019-04-29T02:15:10.761Z,102883.75
2019-04-29T02:18:17.220Z,102890.48
2019-04-29T02:21:23.666Z,102885.09
2019-04-29T02:24:29.917Z,102888.27
2019-04-29T02:27:36.228Z,102875.88
2019-04-29T02:30:46.904Z,102890.48
2019-04-29T02:33:53.162Z,102887.19
2019-04-29T02:37:01.347Z,102882.62
2019-04-29T02:40:18.136Z,102889.61
2019-04-29T02:43:27.556Z,102885.57
2019-04-29T02:46:33.944Z,102882.27
2019-04-29T02:49:40.473Z,102882.02
2019-04-29T02:52:46.952Z,102886.67
2019-04-29T02:55:55.090Z,102882.50
2019-04-29T02:59:04.957Z,102883.61
2019-04-29T03:02:29.043Z,102871.59
2019-04-29T03:05:45.636Z,102876.00
2019-04-29T03:08:51.930Z,102880.44
2019-04-29T03:12:01.790Z,102874.39
2019-04-29T03:15:06.467Z,102869.75
2019-04-29T03:18:12.770Z,102872.41
2019-04-29T03:21:23.309Z,102866.52
2019-04-29T03:24:29.636Z,102864.05
2019-04-29T03:27:35.983Z,102869.70
2019-04-29T03:30:42.453Z,102865.18
2019-04-29T03:33:48.926Z,102853.34
2019-04-29T03:36:55.289Z,102855.71
2019-04-29T03:40:01.603Z,102854.22
2019-04-29T03:43:08.089Z,102858.88
2019-04-29T03:46:14.751Z,102852.02
2019-04-29T03:49:21.013Z,102851.92
2019-04-29T03:52:28.443Z,102853.27
2019-04-29T03:55:39.977Z,102847.88
2019-04-29T03:58:42.909Z,102854.66
2019-04-29T04:02:11.740Z,102848.73
2019-04-29T04:05:34.951Z,102857.59
2019-04-29T04:09:05.681Z,102853.64
2019-04-29T04:12:01.586Z,102842.92
2019-04-29T04:15:08.283Z,102847.05
2019-04-29T04:18:34.417Z,102845.52
2019-04-29T04:21:40.926Z,102843.81
2019-04-29T04:24:47.679Z,102843.81
2019-04-29T04:27:54.035Z,102848.91
2019-04-29T04:31:00.522Z,102851.89
2019-04-29T04:34:06.991Z,102850.77
2019-04-29T04:37:13.500Z,102854.77
2019-04-29T04:40:26.213Z,102847.05
2019-04-29T04:43:32.671Z,102849.91
2019-04-29T04:46:39.241Z,102846.32
2019-04-29T04:49:45.666Z,102855.23
2019-04-29T04:52:52.082Z,102851.64
2019-04-29T04:56:00.737Z,102843.36
2019-04-29T04:59:07.297Z,102841.36
2019-04-29T05:02:14.217Z,102846.32
2019-04-29T05:05:20.609Z,102854.32
2019-04-29T05:08:26.963Z,102856.67
2019-04-29T05:11:33.364Z,102861.78
2019-04-29T05:14:39.835Z,102854.16
2019-04-29T05:17:46.271Z,102851.16
2019-04-29T05:20:53.004Z,102854.90
2019-04-29T05:23:59.412Z,102848.91
2019-04-29T05:27:05.800Z,102844.11
2019-04-29T05:30:12.161Z,102849.95
2019-04-29T05:33:18.686Z,102846.27
2019-04-29T05:36:38.290Z,102844.68
2019-04-29T05:39:43.053Z,102841.23
2019-04-29T05:42:52.545Z,102843.27
2019-04-29T05:46:26.604Z,102841.35
2019-04-29T05:50:01.709Z,102835.78
2019-04-29T05:53:16.360Z,102829.04
2019-04-29T05:56:21.235Z,102829.11
2019-04-29T05:59:27.708Z,102827.98
2019-04-29T06:02:38.701Z,102831.28
2019-04-29T06:05:42.960Z,102828.60
2019-04-29T06:08:50.777Z,102834.16
2019-04-29T06:11:57.097Z,102844.08
2019-04-29T06:15:03.511Z,102853.09
2019-04-29T06:18:10.233Z,102846.27
2019-04-29T06:21:16.655Z,102844.82
2019-04-29T06:24:22.974Z,102845.70
2019-04-29T06:27:29.358Z,102842.44
2019-04-29T06:30:40.459Z,102842.44
2019-04-29T06:33:45.005Z,102845.73
2019-04-29T06:36:51.486Z,102852.72
2019-04-29T06:39:57.893Z,102848.38
2019-04-29T06:43:04.663Z,102838.61
2019-04-29T06:46:10.983Z,102834.31
2019-04-29T06:49:17.379Z,102828.05
2019-04-29T06:52:23.896Z,102830.16
2019-04-29T06:55:30.243Z,102825.89
2019-04-29T06:58:38.393Z,102835.58
2019-04-29T07:01:44.958Z,102833.70
2019-04-29T07:04:52.296Z,102821.16
2019-04-29T07:07:58.708Z,102828.73
2019-04-29T07:11:05.092Z,102818.98
2019-04-29T07:14:11.670Z,102808.28
2019-04-29T07:17:18.017Z,102825.75
2019-04-29T07:20:24.389Z,102831.50
2019-04-29T07:23:30.740Z,102833.70
2019-04-29T07:26:37.295Z,102829.92
2019-04-29T07:29:43.628Z,102820.41
2019-04-29T07:32:50.133Z,102821.89
2019-04-29T07:36:09.927Z,102817.44
2019-04-29T07:39:06.305Z,102811.62
2019-04-29T07:42:12.869Z,102806.95
2019-04-29T07:45:44.343Z,102812.16
2019-04-29T07:48:46.339Z,102811.73
2019-04-29T07:51:53.250Z,102806.22
2019-04-29T07:55:00.804Z,102797.23
2019-04-29T07:58:08.327Z,102797.30
2019-04-29T08:01:14.656Z,102788.06
2019-04-29T08:04:21.092Z,102763.33
2019-04-29T08:07:29.087Z,102776.61
2019-04-29T08:10:35.504Z,102773.12
2019-04-29T08:13:43.451Z,102780.98
2019-04-29T08:16:49.993Z,102783.33
2019-04-29T08:19:56.404Z,102784.34
2019-04-29T08:23:04.184Z,102775.41
2019-04-29T08:26:10.695Z,102782.19
2019-04-29T08:29:17.462Z,102781.84
2019-04-29T08:32:23.937Z,102784.45
2019-04-29T08:35:32.683Z,102780.19
2019-04-29T08:38:38.417Z,102788.73
2019-04-29T08:41:44.920Z,102777.86
2019-04-29T08:45:02.117Z,102782.25
2019-04-29T08:48:08.890Z,102765.80
2019-04-29T08:51:15.153Z,102765.80
2019-04-29T08:54:21.771Z,102769.63
2019-04-29T08:57:31.866Z,102766.74
2019-04-29T09:00:36.467Z,102762.41
2019-04-29T09:03:42.830Z,102762.12
2019-04-29T09:06:49.398Z,102771.98
2019-04-29T09:10:01.755Z,102760.94
2019-04-29T09:13:04.257Z,102755.22
2019-04-29T09:16:10.782Z,102750.41
2019-04-29T09:19:17.273Z,102756.52
2019-04-29T09:22:26.304Z,102743.95
2019-04-29T09:26:02.784Z,102727.67
2019-04-29T09:29:23.885Z,102733.19
2019-04-29T09:32:33.923Z,102721.08
2019-04-29T09:35:40.580Z,102727.27
2019-04-29T09:38:47.205Z,102711.81
2019-04-29T09:42:08.136Z,102704.98
2019-04-29T09:45:36.191Z,102704.98
2019-04-29T09:48:42.616Z,102724.95
2019-04-29T09:51:49.070Z,102715.24
2019-04-29T09:54:55.407Z,102721.57
2019-04-29T09:58:01.829Z,102718.98
2019-04-29T10:01:20.872Z,102719.52
2019-04-29T10:04:36.596Z,102693.19
2019-04-29T10:07:42.947Z,102719.49
2019-04-29T10:10:50.221Z,102716.02
2019-04-29T10:13:56.786Z,102702.86
2019-04-29T10:17:34.365Z,102699.52
2019-04-29T10:20:46.704Z,102697.08
2019-04-29T10:23:53.655Z,102694.73
2019-04-29T10:27:00.106Z,102679.51
2019-04-29T10:30:07.562Z,102672.67
2019-04-29T10:33:17.537Z,102668.09
2019-04-29T10:36:26.074Z,102673.80
2019-04-29T10:39:52.493Z,102676.08
2019-04-29T10:43:11.331Z,102665.41
2019-04-29T10:46:35.755Z,102665.31
2019-04-29T10:49:57.927Z,102658.13
2019-04-29T10:53:05.335Z,102654.36
2019-04-29T10:56:11.861Z,102658.50
2019-04-29T10:59:18.325Z,102630.73
2019-04-29T11:02:51.198Z,102630.73
2019-04-29T11:06:01.852Z,102628.03
2019-04-29T11:09:25.746Z,102641.35
2019-04-29T11:12:33.019Z,102641.35
2019-04-29T11:15:39.490Z,102625.42
2019-04-29T11:18:45.929Z,102616.81
2019-04-29T11:21:52.800Z,102602.14
2019-04-29T11:25:28.270Z,102600.25
2019-04-29T11:28:35.421Z,102591.26
2019-04-29T11:31:41.923Z,102591.36
2019-04-29T11:35:10.465Z,102585.77
2019-04-29T11:38:18.315Z,102596.97
2019-04-29T11:41:25.804Z,102598.67
2019-04-29T11:44:32.236Z,102588.79
2019-04-29T11:47:38.865Z,102602.58
2019-04-29T11:51:19.476Z,102602.13
2019-04-29T11:54:26.926Z,102591.36
2019-04-29T11:57:41.391Z,102577.88
2019-04-29T12:01:04.063Z,102567.91
2019-04-29T12:04:28.652Z,102565.78
2019-04-29T12:07:34.088Z,102562.13
2019-04-29T12:10:48.249Z,102581.38
2019-04-29T12:14:02.955Z,102595.47
2019-04-29T12:17:24.945Z,102599.92
2019-04-29T12:20:39.658Z,102574.55
2019-04-29T12:23:47.801Z,102559.27
2019-04-29T12:26:54.113Z,102553.71
2019-04-29T12:30:00.754Z,102557.67
2019-04-29T12:33:22.017Z,102550.94
2019-04-29T12:36:28.341Z,102528.77
2019-04-29T12:39:59.507Z,102531.52
2019-04-29T12:43:32.551Z,102532.36
2019-04-29T12:46:44.413Z,102552.59
2019-04-29T12:49:50.912Z,102549.02
2019-04-29T12:52:57.401Z,102553.73
2019-04-29T12:56:07.210Z,102548.22
2019-04-29T12:59:14.585Z,102548.47
2019-04-29T13:02:36.215Z,102540.66
2019-04-29T13:05:57.920Z,102519.72
2019-04-29T13:09:17.227Z,102541.51
2019-04-29T13:12:19.743Z,102531.56
2019-04-29T13:15:49.899Z,102529.51
2019-04-29T13:19:19.900Z,102528.25
2019-04-29T13:22:22.305Z,102512.02
2019-04-29T13:25:29.022Z,102507.36
2019-04-29T13:28:51.868Z,102502.66
2019-04-29T13:31:46.072Z,102511.09
2019-04-29T13:34:53.176Z,102500.30
2019-04-29T13:37:59.824Z,102501.38
2019-04-29T13:41:13.267Z,102502.50
2019-04-29T13:44:19.230Z,102500.45
2019-04-29T13:47:33.671Z,102496.02
2019-04-29T13:51:02.262Z,102490.41
2019-04-29T13:54:08.774Z,102488.74
2019-04-29T13:57:16.173Z,102493.71
2019-04-29T14:00:38.344Z,102488.00
2019-04-29T14:03:49.522Z,102490.80
2019-04-29T14:06:57.389Z,102490.95
2019-04-29T14:10:04.576Z,102488.77
2019-04-29T14:13:16.792Z,102488.36
2019-04-29T14:16:22.557Z,102479.94
2019-04-29T14:19:44.270Z,102479.94
2019-04-29T14:22:37.178Z,102487.06
2019-04-29T14:25:46.515Z,102491.66
2019-04-29T14:28:53.275Z,102489.17
2019-04-29T14:32:01.332Z,102489.17
2019-04-29T14:35:14.351Z,102481.10
2019-04-29T14:38:24.059Z,102490.16
2019-04-29T14:41:30.862Z,102490.16
2019-04-29T14:44:47.259Z,102485.22
2019-04-29T14:48:12.002Z,102482.07
2019-04-29T14:51:18.775Z,102474.55
2019-04-29T14:54:25.498Z,102481.25
2019-04-29T14:57:32.091Z,102471.75
2019-04-29T15:01:15.004Z,102470.77
2019-04-29T15:04:23.933Z,102468.48
2019-04-29T15:07:36.162Z,102469.72
2019-04-29T15:10:43.764Z,102467.60
2019-04-29T15:13:52.582Z,102473.74
2019-04-29T15:17:06.661Z,102485.11
2019-04-29T15:20:24.673Z,102472.81
2019-04-29T15:23:32.652Z,102460.52
2019-04-29T15:26:37.159Z,102460.52
2019-04-29T15:29:43.709Z,102472.31
2019-04-29T15:32:53.026Z,102461.48
2019-04-29T15:36:01.483Z,102472.18
2019-04-29T15:39:11.423Z,102469.65
2019-04-29T15:42:17.253Z,102473.27
2019-04-29T15:45:24.228Z,102472.95
2019-04-29T15:48:32.205Z,102476.16
2019-04-29T15:51:38.783Z,102478.55
2019-04-29T15:54:45.897Z,102483.95
2019-04-29T15:57:53.667Z,102479.60
2019-04-29T16:01:12.875Z,102479.60
2019-04-29T16:04:11.921Z,102475.13
2019-04-29T16:07:31.881Z,102470.09
2019-04-29T16:10:59.138Z,102483.63
2019-04-29T16:14:10.060Z,102472.41
2019-04-29T16:17:20.441Z,102462.08
2019-04-29T16:20:24.786Z,102462.08
2019-04-29T16:23:32.699Z,102480.75
2019-04-29T16:26:39.794Z,102479.05
2019-04-29T16:29:51.447Z,102481.06
2019-04-29T16:32:54.248Z,102482.16
2019-04-29T16:36:04.918Z,102489.91
2019-04-29T16:39:09.147Z,102481.60
2019-04-29T16:42:32.410Z,102480.88
2019-04-29T16:46:00.180Z,102479.53
2019-04-29T16:49:06.868Z,102480.92
2019-04-29T16:52:13.409Z,102494.08
2019-04-29T16:55:19.814Z,102490.20
2019-04-29T16:58:26.230Z,102490.22
2019-04-29T17:01:32.909Z,102482.33
2019-04-29T17:04:39.418Z,102489.49
2019-04-29T17:07:46.007Z,102485.08
2019-04-29T17:11:05.146Z,102485.13
2019-04-29T17:14:13.023Z,102490.53
2019-04-29T17:17:28.880Z,102486.48
2019-04-29T17:20:31.388Z,102484.84
2019-04-29T17:23:37.818Z,102488.41
2019-04-29T17:27:04.041Z,102496.52
2019-04-29T17:30:24.900Z,102489.05
2019-04-29T17:33:49.035Z,102493.26
2019-04-29T17:36:48.951Z,102493.75
2019-04-29T17:39:55.418Z,102501.71
2019-04-29T17:43:12.369Z,102493.84
2019-04-29T17:46:41.812Z,102499.48
2019-04-29T17:50:08.690Z,102497.47
2019-04-29T17:53:26.958Z,102516.53
2019-04-29T17:57:10.201Z,102515.02
2019-04-29T18:00:40.955Z,102510.43
2019-04-29T18:03:55.861Z,102515.48
2019-04-29T18:07:25.296Z,102520.02
2019-04-29T18:10:38.553Z,102523.88
2019-04-29T18:13:45.914Z,102526.41
2019-04-29T18:16:55.563Z,102533.52
2019-04-29T18:20:32.878Z,102521.80
2019-04-29T18:23:59.242Z,102534.80
2019-04-29T18:27:07.367Z,102530.58
2019-04-29T18:30:17.371Z,102536.37
2019-04-29T18:33:29.651Z,102529.06
2019-04-29T18:36:32.753Z,102532.61
2019-04-29T18:39:39.247Z,102521.50
2019-04-29T18:42:48.370Z,102521.50
2019-04-29T18:45:58.716Z,102538.57
2019-04-29T18:49:04.786Z,102542.11
2019-04-29T18:52:11.534Z,102538.17
2019-04-29T18:55:18.041Z,102544.69
2019-04-29T18:58:25.081Z,102536.89
2019-04-29T19:01:32.794Z,102535.34
2019-04-29T19:04:46.888Z,102538.56
2019-04-29T19:07:56.527Z,102525.31
2019-04-29T19:11:05.071Z,102529.23
2019-04-29T19:14:12.256Z,102528.52
2019-04-29T19:17:21.579Z,102528.03
2019-04-29T19:20:27.216Z,102537.19
2019-04-29T19:23:35.801Z,102533.78
2019-04-29T19:26:42.016Z,102540.22
2019-04-29T19:29:48.359Z,102543.27
2019-04-29T19:33:00.351Z,102544.98
2019-04-29T19:36:06.689Z,102544.30
2019-04-29T19:39:17.046Z,102541.91
2019-04-29T19:42:28.997Z,102532.97
2019-04-29T19:45:29.027Z,102538.80
2019-04-29T19:48:36.728Z,102538.09
2019-04-29T19:51:46.277Z,102537.77
2019-04-29T19:54:51.365Z,102537.38
2019-04-29T19:57:58.181Z,102546.77
2019-04-29T20:01:13.716Z,102532.17
2019-04-29T20:04:44.721Z,102534.59
2019-04-29T20:07:52.009Z,102521.80
2019-04-29T20:11:11.605Z,102527.23
2019-04-29T20:14:17.952Z,102518.16
2019-04-29T20:17:33.334Z,102514.53
2019-04-29T20:20:46.241Z,102525.95
2019-04-29T20:23:53.472Z,102534.16
2019-04-29T20:26:59.996Z,102524.09
2019-04-29T20:30:15.807Z,102537.97
2019-04-29T20:33:16.169Z,102534.95
2019-04-29T20:36:33.088Z,102531.37
2019-04-29T20:39:31.145Z,102539.44
2019-04-29T20:42:40.477Z,102536.72
2019-04-29T20:45:45.880Z,102540.23
2019-04-29T20:48:55.813Z,102530.34
2019-04-29T20:52:23.084Z,102535.97
2019-04-29T20:55:31.911Z,102527.27
2019-04-29T20:58:37.713Z,102524.61
2019-04-29T21:01:47.661Z,102534.19
2019-04-29T21:04:57.740Z,102529.97
2019-04-29T21:08:03.653Z,102529.14
2019-04-29T21:11:20.770Z,102529.16
2019-04-29T21:14:38.274Z,102525.64
2019-04-29T21:17:45.418Z,102525.32
2019-04-29T21:20:52.698Z,102526.30
2019-04-29T21:23:59.079Z,102537.63
2019-04-29T21:27:05.651Z,102539.36
2019-04-29T21:30:12.153Z,102534.63
2019-04-29T21:33:21.508Z,102537.30
2019-04-29T21:37:01.511Z,102537.30
2019-04-29T21:40:24.764Z,102545.48
2019-04-29T21:43:32.724Z,102539.59
2019-04-29T21:46:39.169Z,102539.91
2019-04-29T21:49:49.729Z,102536.34
2019-04-29T21:52:55.311Z,102533.09
2019-04-29T21:56:06.333Z,102533.62
2019-04-29T21:59:12.275Z,102535.41
2019-04-29T22:02:18.897Z,102522.89
2019-04-29T22:05:25.238Z,102534.14
2019-04-29T22:08:31.761Z,102533.00
2019-04-29T22:11:43.274Z,102526.53
2019-04-29T22:14:52.482Z,102530.84
2019-04-29T22:17:58.615Z,102520.47
2019-04-29T22:21:06.512Z,102523.62
2019-04-29T22:24:11.724Z,102527.64
2019-04-29T22:27:18.024Z,102530.63
2019-04-29T22:30:26.455Z,102532.79
2019-04-29T22:33:34.929Z,102526.28
2019-04-29T22:36:41.065Z,102527.09
2019-04-29T22:39:47.508Z,102529.44
2019-04-29T22:43:09.829Z,102535.52
2019-04-29T22:46:12.471Z,102534.43
2019-04-29T22:49:24.439Z,102536.36
2019-04-29T22:52:29.882Z,102523.97
2019-04-29T22:55:38.705Z,102519.27
2019-04-29T22:58:43.977Z,102519.98
2019-04-29T23:01:51.567Z,102508.14
2019-04-29T23:04:57.911Z,102508.14
2019-04-29T23:08:05.135Z,102504.16
2019-04-29T23:11:11.719Z,102504.59
2019-04-29T23:14:18.068Z,102507.53
2019-04-29T23:17:25.486Z,102512.16
2019-04-29T23:21:09.388Z,102518.76
2019-04-29T23:24:35.195Z,102523.10
2019-04-29T23:27:41.677Z,102514.19
2019-04-29T23:30:52.223Z,102516.06
2019-04-29T23:33:56.569Z,102504.59
2019-04-29T23:37:02.912Z,102500.94
2019-04-29T23:40:09.428Z,102483.36
2019-04-29T23:43:15.841Z,102477.95
2019-04-29T23:46:22.097Z,102473.02
2019-04-29T23:49:28.694Z,102484.41
2019-04-29T23:52:35.970Z,102485.86
2019-04-29T23:55:42.396Z,102480.80
2019-04-29T23:59:05.525Z,102479.66
